Time;durP1;ratioP1;P1;durP2;ratioP2;P2;SDS_P1;SDS_P2;PMS_P1;PMS_P2;Temp;Humidity;BMP_temperature;BMP_pressure;BME280_temperature;BME280_humidity;BME280_pressure;Samples;Min_cycle;Max_cycle;Signal;HPM_P1;HPM_P2
2023/10/22 00:01:53;;;;;;;11.10;9.13;;;;;;;19.83;64.14;92752.16;5067358;28;20254;-76
2023/10/22 00:04:19;;;;;;;11.38;10.10;;;;;;;19.59;67.32;92754.03;5068773;28;20224;-77
2023/10/22 00:06:44;;;;;;;14.83;9.30;;;;;;;19.43;62.67;92738.00;5069548;28;20192;-76
2023/10/22 00:09:09;;;;;;;18.93;10.23;;;;;;;19.38;61.79;92743.50;5068449;28;20219;-76
2023/10/22 00:11:35;;;;;;;11.77;9.70;;;;;;;19.65;58.90;92739.47;5068372;28;20195;-75
2023/10/22 00:14:00;;;;;;;14.37;10.43;;;;;;;19.55;59.63;92721.38;5058486;28;20228;-75
2023/10/22 00:16:25;;;;;;;15.97;10.00;;;;;;;19.56;62.78;92721.03;5069521;28;20203;-76
2023/10/22 00:18:52;;;;;;;12.77;9.40;;;;;;;19.44;60.75;92728.97;5057672;28;20231;-76
2023/10/22 00:21:18;;;;;;;12.50;10.03;;;;;;;19.35;63.52;92720.34;5068169;28;20976;-79
2023/10/22 00:23:43;;;;;;;13.83;9.10;;;;;;;19.10;63.99;92694.91;5068681;28;20223;-75
2023/10/22 00:26:14;;;;;;;10.53;8.83;;;;;;;19.07;65.64;92698.22;5069908;28;20183;-82
2023/10/22 00:28:40;;;;;;;9.40;8.43;;;;;;;18.81;65.44;92668.59;5077108;28;20227;-82
2023/10/22 00:31:05;;;;;;;10.67;9.60;;;;;;;18.86;66.39;92687.69;5073651;28;20234;-81
2023/10/22 00:33:30;;;;;;;9.40;8.63;;;;;;;18.98;61.17;92679.00;5063070;28;20272;-81
2023/10/22 00:35:59;;;;;;;15.03;8.90;;;;;;;19.34;58.26;92689.69;5065183;28;20190;-82
2023/10/22 00:38:25;;;;;;;11.70;9.23;;;;;;;19.36;58.23;92687.50;5069245;28;20232;-82
2023/10/22 00:40:51;;;;;;;9.87;8.63;;;;;;;19.52;57.64;92693.66;5063688;28;20188;-80
2023/10/22 00:43:16;;;;;;;9.63;8.83;;;;;;;19.43;58.33;92698.28;5066080;28;20223;-82
2023/10/22 00:45:42;;;;;;;8.53;7.87;;;;;;;19.43;55.56;92689.56;5063251;28;20216;-81
2023/10/22 00:48:12;;;;;;;12.20;8.60;;;;;;;19.68;55.39;92697.19;5069047;28;20353;-81
2023/10/22 00:50:39;;;;;;;13.40;8.87;;;;;;;19.52;56.05;92653.19;5069538;28;20200;-82
2023/10/22 00:53:06;;;;;;;12.43;8.37;;;;;;;19.73;54.22;92686.38;5062634;28;20258;-81
2023/10/22 00:55:36;;;;;;;11.97;8.97;;;;;;;19.84;53.30;92723.81;5063681;28;20197;-84
2023/10/22 00:58:03;;;;;;;13.23;8.77;;;;;;;19.84;51.98;92692.78;5057572;28;20224;-81
2023/10/22 01:00:28;;;;;;;15.87;9.47;;;;;;;19.69;53.05;92677.53;5043413;28;20212;-81
2023/10/22 01:02:53;;;;;;;15.53;8.40;;;;;;;20.10;51.75;92714.38;5051103;28;20211;-82
2023/10/22 01:05:19;;;;;;;12.70;9.27;;;;;;;19.91;52.86;92706.22;5049364;28;20218;-83
2023/10/22 01:07:47;;;;;;;15.83;9.80;;;;;;;19.76;55.99;92724.69;5048454;28;20179;-81
2023/10/22 01:10:12;;;;;;;12.07;8.80;;;;;;;19.59;56.91;92730.19;5046580;28;20183;-82
2023/10/22 01:12:38;;;;;;;10.27;8.70;;;;;;;19.86;53.24;92729.56;5047080;28;20256;-80
2023/10/22 01:15:05;;;;;;;9.57;8.43;;;;;;;19.86;54.54;92732.94;5051002;28;20232;-82
2023/10/22 01:17:30;;;;;;;12.97;9.07;;;;;;;19.89;56.22;92719.03;5054721;28;20218;-81
2023/10/22 01:19:55;;;;;;;11.53;9.00;;;;;;;19.80;56.34;92713.09;5044954;28;20216;-81
2023/10/22 01:22:21;;;;;;;12.50;9.07;;;;;;;19.50;60.18;92711.00;5048947;28;20176;-81
2023/10/22 01:24:46;;;;;;;14.73;9.43;;;;;;;19.59;59.61;92709.78;5046901;28;20215;-81
2023/10/22 01:27:12;;;;;;;10.77;9.00;;;;;;;19.49;60.54;92704.91;5041149;28;20197;-82
2023/10/22 01:29:37;;;;;;;10.27;9.27;;;;;;;19.38;61.35;92711.00;5046943;28;20239;-81
2023/10/22 01:32:03;;;;;;;9.27;8.23;;;;;;;19.19;60.97;92695.59;5058199;28;20189;-81
2023/10/22 01:34:28;;;;;;;13.07;9.07;;;;;;;19.23;60.92;92701.00;5049362;28;20223;-78
2023/10/22 01:36:53;;;;;;;10.20;9.17;;;;;;;19.29;61.17;92707.66;5047836;28;20207;-80
2023/10/22 01:39:19;;;;;;;12.93;9.37;;;;;;;19.27;60.85;92702.66;5047796;28;20749;-81
2023/10/22 01:41:44;;;;;;;10.43;9.43;;;;;;;18.98;62.58;92698.31;5054923;28;20171;-81
2023/10/22 01:44:10;;;;;;;10.17;9.17;;;;;;;18.90;63.75;92719.56;5050821;28;20992;-81
2023/10/22 01:46:35;;;;;;;13.57;9.47;;;;;;;19.01;62.26;92704.81;5053074;28;20275;-81
2023/10/22 01:49:01;;;;;;;9.90;8.87;;;;;;;19.05;61.59;92693.25;5043392;28;20260;-81
2023/10/22 01:51:27;;;;;;;15.40;11.50;;;;;;;18.88;62.96;92716.44;5047114;28;20268;-82
2023/10/22 01:53:52;;;;;;;10.23;9.43;;;;;;;18.79;63.83;92708.63;5059507;28;20236;-82
2023/10/22 01:56:18;;;;;;;10.53;9.53;;;;;;;19.14;59.38;92698.47;5053069;28;20191;-82
2023/10/22 01:58:47;;;;;;;16.30;8.73;;;;;;;19.11;59.82;92699.88;5048346;28;20250;-82
2023/10/22 02:01:12;;;;;;;9.90;8.83;;;;;;;19.03;59.93;92697.31;5054767;28;20266;-81
2023/10/22 02:03:37;;;;;;;14.47;8.80;;;;;;;19.14;57.49;92693.16;5056237;28;20227;-81
2023/10/22 02:06:13;;;;;;;11.37;8.90;;;;;;;19.00;61.23;92692.69;5056018;28;20189;-82
2023/10/22 02:08:39;;;;;;;13.00;9.43;;;;;;;19.15;57.48;92668.22;5040543;28;20223;-82
2023/10/22 02:11:04;;;;;;;10.57;9.60;;;;;;;19.14;58.41;92687.88;5045727;28;20259;-82
2023/10/22 02:13:30;;;;;;;10.27;9.27;;;;;;;19.26;57.21;92687.09;5038507;28;20232;-82
2023/10/22 02:15:57;;;;;;;21.40;9.70;;;;;;;19.25;56.84;92689.00;5053208;28;20187;-79
2023/10/22 02:18:23;;;;;;;12.63;8.70;;;;;;;19.51;53.01;92689.47;5030403;28;20258;-80
2023/10/22 02:20:58;;;;;;;13.43;8.53;;;;;;;19.83;51.93;92698.41;5048645;28;20184;-81
2023/10/22 02:23:24;;;;;;;14.10;9.10;;;;;;;19.56;53.76;92683.19;5043420;28;20228;-83
2023/10/22 02:25:50;;;;;;;9.90;8.67;;;;;;;19.86;51.36;92695.09;5044680;28;20203;-82
2023/10/22 02:28:19;;;;;;;19.90;9.47;;;;;;;20.03;50.92;92692.97;5052553;28;20247;-81
2023/10/22 02:30:47;;;;;;;15.27;9.13;;;;;;;19.89;51.74;92686.47;5032407;28;20220;-81
2023/10/22 02:33:13;;;;;;;10.83;8.80;;;;;;;19.73;52.36;92689.03;5042882;28;20235;-81
2023/10/22 02:35:46;;;;;;;9.37;8.30;;;;;;;19.78;51.70;92669.50;5037710;28;20248;-82
2023/10/22 02:38:15;;;;;;;10.43;7.93;;;;;;;19.51;52.47;92670.94;5038703;28;20247;-82
2023/10/22 02:40:41;;;;;;;13.27;8.93;;;;;;;19.36;52.46;92657.59;5050612;28;20196;-82
2023/10/22 02:43:07;;;;;;;15.43;8.67;;;;;;;19.50;51.46;92652.72;5050186;28;20311;-79
2023/10/22 02:45:33;;;;;;;13.20;8.40;;;;;;;19.51;50.98;92678.88;5051600;28;20220;-81
2023/10/22 02:47:59;;;;;;;10.60;8.97;;;;;;;19.41;51.86;92675.91;5043655;28;20243;-82
2023/10/22 02:50:25;;;;;;;14.60;8.73;;;;;;;19.53;52.06;92679.34;5046257;28;20193;-82
2023/10/22 02:52:54;;;;;;;11.37;8.03;;;;;;;19.65;51.41;92678.53;5050435;28;20203;-84
2023/10/22 02:55:19;;;;;;;16.20;9.77;;;;;;;19.32;52.98;92660.09;5046518;28;20251;-82
2023/10/22 02:57:45;;;;;;;13.77;8.70;;;;;;;19.35;51.94;92683.28;5059682;28;20207;-79
2023/10/22 03:00:11;;;;;;;11.37;8.50;;;;;;;19.16;53.13;92672.41;5075614;28;20831;-82
2023/10/22 03:02:37;;;;;;;15.07;9.43;;;;;;;19.46;51.15;92684.38;5068428;28;20214;-81
2023/10/22 03:05:03;;;;;;;12.73;10.07;;;;;;;19.34;52.70;92679.09;5061322;28;20222;-81
2023/10/22 03:07:29;;;;;;;12.70;8.73;;;;;;;19.48;50.94;92670.81;5048201;28;20215;-81
2023/10/22 03:09:54;;;;;;;10.80;8.10;;;;;;;19.27;53.30;92662.94;5057236;28;20234;-82
2023/10/22 03:12:20;;;;;;;10.83;9.43;;;;;;;19.13;53.35;92649.25;5061941;28;20207;-82
2023/10/22 03:14:45;;;;;;;14.27;8.70;;;;;;;19.26;52.96;92656.13;5062459;28;20239;-80
2023/10/22 03:17:12;;;;;;;15.17;9.40;;;;;;;19.50;52.90;92664.09;5053377;28;20860;-81
2023/10/22 03:19:37;;;;;;;14.23;8.77;;;;;;;19.38;53.23;92660.69;5064415;28;20294;-81
2023/10/22 03:22:04;;;;;;;15.03;8.40;;;;;;;19.17;53.77;92652.81;5071475;28;20251;-82
2023/10/22 03:24:30;;;;;;;11.20;9.50;;;;;;;19.39;53.10;92647.13;5068078;28;20219;-82
2023/10/22 03:26:56;;;;;;;16.10;9.30;;;;;;;19.10;55.13;92658.63;5070751;28;20207;-81
2023/10/22 03:29:21;;;;;;;12.03;9.30;;;;;;;19.24;54.56;92652.25;5067295;28;20249;-81
2023/10/22 03:31:47;;;;;;;10.97;9.50;;;;;;;18.92;56.11;92643.28;5070860;28;20243;-82
2023/10/22 03:34:12;;;;;;;10.50;8.90;;;;;;;18.67;57.16;92647.75;5069663;28;20253;-81
2023/10/22 03:36:38;;;;;;;13.63;8.73;;;;;;;18.73;57.50;92650.94;5068019;28;20179;-82
2023/10/22 03:39:06;;;;;;;12.87;8.93;;;;;;;18.72;57.14;92652.06;5063840;28;20232;-82
2023/10/22 03:41:31;;;;;;;9.40;8.50;;;;;;;18.65;57.86;92654.44;5064013;28;20199;-82
2023/10/22 03:43:56;;;;;;;14.67;9.83;;;;;;;18.62;58.30;92639.22;5065821;28;20229;-81
2023/10/22 03:46:22;;;;;;;14.03;9.17;;;;;;;18.38;59.14;92655.78;5072687;28;20214;-82
2023/10/22 03:48:47;;;;;;;10.07;9.10;;;;;;;18.47;58.71;92647.78;5066599;28;20240;-82
2023/10/22 03:51:12;;;;;;;10.07;9.10;;;;;;;18.40;57.96;92648.31;5061707;28;20239;-79
2023/10/22 03:53:38;;;;;;;13.23;9.03;;;;;;;18.31;58.46;92650.22;5070097;28;20230;-81
2023/10/22 03:56:03;;;;;;;11.63;9.30;;;;;;;18.47;58.34;92656.50;5069135;28;20191;-82
2023/10/22 03:58:29;;;;;;;12.87;9.43;;;;;;;18.29;58.17;92660.34;5064568;28;20865;-82
2023/10/22 04:00:57;;;;;;;13.63;8.97;;;;;;;18.42;58.08;92661.19;5071669;28;20180;-82
2023/10/22 04:03:23;;;;;;;11.03;8.80;;;;;;;18.48;57.61;92649.31;5069785;28;20241;-81
2023/10/22 04:05:57;;;;;;;11.37;9.13;;;;;;;18.48;57.83;92654.59;5075377;28;20186;-79
2023/10/22 04:08:24;;;;;;;14.10;9.03;;;;;;;18.33;58.33;92636.69;5070023;28;20241;-82
2023/10/22 04:10:51;;;;;;;19.13;9.63;;;;;;;18.39;58.71;92646.00;5057798;28;20741;-81
2023/10/22 04:13:16;;;;;;;12.73;9.50;;;;;;;18.34;59.49;92649.56;5072399;28;20223;-82
2023/10/22 04:15:42;;;;;;;11.00;8.80;;;;;;;18.02;58.46;92625.75;5064387;28;20196;-82
2023/10/22 04:18:07;;;;;;;14.57;9.90;;;;;;;18.48;57.75;92647.47;5074023;28;20230;-82
2023/10/22 04:20:33;;;;;;;11.00;9.07;;;;;;;18.30;58.36;92664.56;5063093;28;20179;-81
2023/10/22 04:22:59;;;;;;;15.70;9.43;;;;;;;18.39;57.68;92652.06;5068320;28;20232;-82
2023/10/22 04:25:26;;;;;;;12.57;9.37;;;;;;;18.61;56.69;92642.97;5070108;28;20254;-82
2023/10/22 04:27:51;;;;;;;12.77;8.30;;;;;;;18.50;57.33;92660.34;5061000;28;20191;-82
2023/10/22 04:30:17;;;;;;;13.63;9.27;;;;;;;18.91;53.41;92662.91;5063892;28;20187;-82
2023/10/22 04:32:42;;;;;;;10.50;9.47;;;;;;;18.84;55.50;92670.59;5060545;28;20954;-81
2023/10/22 04:35:07;;;;;;;14.67;9.57;;;;;;;18.64;55.39;92693.34;5058429;28;20200;-81
2023/10/22 04:37:33;;;;;;;11.80;9.33;;;;;;;18.72;56.08;92697.03;5060434;28;20198;-82
2023/10/22 04:39:58;;;;;;;12.07;8.80;;;;;;;18.57;56.73;92706.31;5057318;28;20226;-82
2023/10/22 04:42:24;;;;;;;12.67;9.90;;;;;;;18.57;57.97;92676.44;5070374;28;20175;-82
2023/10/22 04:44:50;;;;;;;21.17;10.17;;;;;;;18.67;57.28;92705.94;5078542;28;20214;-82
2023/10/22 04:47:16;;;;;;;11.43;9.10;;;;;;;18.47;59.13;92708.59;5066236;28;20235;-80
2023/10/22 04:49:43;;;;;;;11.53;9.53;;;;;;;18.37;60.20;92722.16;5068653;28;20211;-82
2023/10/22 04:52:10;;;;;;;11.30;9.37;;;;;;;18.26;59.81;92728.94;5068996;28;20189;-82
2023/10/22 04:54:36;;;;;;;10.27;9.30;;;;;;;18.31;59.92;92731.38;5062858;28;20244;-82
2023/10/22 04:57:04;;;;;;;11.63;9.70;;;;;;;18.39;60.11;92731.38;5060278;28;20206;-81
2023/10/22 04:59:30;;;;;;;18.83;9.77;;;;;;;18.27;61.81;92741.06;5049566;28;20228;-81
2023/10/22 05:01:55;;;;;;;14.67;10.30;;;;;;;18.22;62.81;92738.59;5045629;28;20170;-80
2023/10/22 05:04:20;;;;;;;17.13;9.67;;;;;;;18.14;62.06;92742.88;5064676;28;20226;-80
2023/10/22 05:06:46;;;;;;;10.97;9.93;;;;;;;18.15;62.63;92752.31;5073175;28;20214;-89
2023/10/22 05:09:11;;;;;;;18.70;9.83;;;;;;;18.18;62.77;92743.75;5055344;28;20289;-81
2023/10/22 05:11:36;;;;;;;16.60;9.40;;;;;;;18.06;62.12;92738.41;5066366;28;20206;-81
2023/10/22 05:14:02;;;;;;;15.07;10.07;;;;;;;18.27;61.98;92741.81;5057790;28;20230;-81
2023/10/22 05:16:27;;;;;;;17.33;9.77;;;;;;;18.03;62.11;92757.53;5069010;28;20178;-81
2023/10/22 05:18:53;;;;;;;11.00;9.57;;;;;;;18.14;61.90;92750.00;5061795;28;20238;-80
2023/10/22 05:21:18;;;;;;;16.50;10.47;;;;;;;18.14;61.58;92728.88;5069157;28;20191;-81
2023/10/22 05:23:44;;;;;;;18.47;9.87;;;;;;;18.13;63.08;92735.25;5068529;28;20218;-81
2023/10/22 05:26:11;;;;;;;11.47;9.47;;;;;;;17.98;63.38;92743.75;5068868;28;20191;-82
2023/10/22 05:28:37;;;;;;;19.07;10.53;;;;;;;17.63;65.74;92725.44;5068783;28;20229;-81
2023/10/22 05:31:11;;;;;;;10.20;9.13;;;;;;;17.81;65.33;92720.06;5054308;28;20210;-81
2023/10/22 05:33:37;;;;;;;15.10;10.67;;;;;;;17.72;66.34;92714.81;5068576;28;20217;-81
2023/10/22 05:36:03;;;;;;;15.83;9.80;;;;;;;17.56;66.60;92722.53;5067732;28;20221;-82
2023/10/22 05:38:28;;;;;;;12.73;10.13;;;;;;;17.56;66.86;92716.47;5068414;28;20225;-81
2023/10/22 05:40:54;;;;;;;16.87;10.47;;;;;;;17.67;65.83;92722.16;5065902;28;20194;-80
2023/10/22 05:43:19;;;;;;;12.53;9.80;;;;;;;17.91;61.60;92719.69;5068407;28;20257;-81
2023/10/22 05:45:44;;;;;;;12.57;9.20;;;;;;;17.74;65.20;92735.63;5062965;28;20222;-81
2023/10/22 05:48:10;;;;;;;10.23;9.17;;;;;;;18.00;62.15;92717.75;5068162;28;20226;-81
2023/10/22 05:50:39;;;;;;;10.73;9.90;;;;;;;17.97;60.62;92723.69;5061977;28;20258;-81
2023/10/22 05:53:05;;;;;;;13.20;9.90;;;;;;;17.80;61.54;92724.56;5066235;28;20217;-82
2023/10/22 05:55:30;;;;;;;14.03;10.57;;;;;;;17.69;63.39;92741.88;5066017;28;20181;-79
2023/10/22 05:57:55;;;;;;;20.37;10.20;;;;;;;17.89;61.83;92745.66;5068378;28;20209;-81
2023/10/22 06:00:21;;;;;;;14.07;9.03;;;;;;;18.11;61.07;92759.34;5067728;28;20174;-81
2023/10/22 06:02:46;;;;;;;15.17;9.67;;;;;;;17.96;63.16;92765.19;5065403;28;20256;-81
2023/10/22 06:05:12;;;;;;;13.70;9.80;;;;;;;18.09;61.38;92769.47;5052110;28;20761;-82
2023/10/22 06:07:38;;;;;;;13.13;9.27;;;;;;;17.56;64.12;92774.53;5068213;28;20265;-82
2023/10/22 06:10:03;;;;;;;18.70;10.13;;;;;;;17.75;63.90;92801.34;5070474;28;20536;-81
2023/10/22 06:12:29;;;;;;;16.57;10.47;;;;;;;17.62;65.28;92797.03;5069619;28;20245;-82
2023/10/22 06:14:54;;;;;;;10.80;9.23;;;;;;;17.57;66.60;92795.34;5068740;28;20320;-81
2023/10/22 06:17:20;;;;;;;16.07;9.40;;;;;;;17.63;66.79;92803.09;5064714;28;20218;-80
2023/10/22 06:19:45;;;;;;;13.53;10.17;;;;;;;17.46;68.08;92815.25;5056841;28;20213;-81
2023/10/22 06:22:11;;;;;;;12.17;10.17;;;;;;;17.70;69.65;92832.44;5072580;28;20200;-80
2023/10/22 06:24:36;;;;;;;11.60;10.40;;;;;;;17.60;75.75;92823.75;5070349;28;20202;-81
2023/10/22 06:27:02;;;;;;;14.17;10.60;;;;;;;17.52;76.32;92787.63;5072775;28;20186;-79
2023/10/22 06:29:27;;;;;;;16.50;11.40;;;;;;;17.38;82.09;92794.94;5072053;28;20221;-82
2023/10/22 06:31:54;;;;;;;17.13;11.03;;;;;;;16.93;85.16;92800.91;5078235;28;20197;-81
2023/10/22 06:34:19;;;;;;;12.50;11.10;;;;;;;16.85;86.12;92815.66;5054037;28;20224;-79
2023/10/22 06:36:45;;;;;;;11.87;10.77;;;;;;;17.16;86.38;92826.00;5069836;28;20177;-80
2023/10/22 06:39:10;;;;;;;13.47;12.07;;;;;;;17.31;86.89;92826.28;5070895;28;20217;-81
2023/10/22 06:41:35;;;;;;;18.63;11.57;;;;;;;16.93;87.57;92801.69;5065828;28;20186;-81
2023/10/22 06:44:01;;;;;;;12.70;11.37;;;;;;;17.33;87.84;92836.53;5068896;28;20309;-81
2023/10/22 06:46:26;;;;;;;14.70;11.43;;;;;;;17.60;86.01;92836.19;5054089;28;20219;-81
2023/10/22 06:48:52;;;;;;;13.50;11.27;;;;;;;17.73;84.92;92823.88;5058917;28;20214;-81
2023/10/22 06:51:17;;;;;;;12.17;10.70;;;;;;;17.70;86.25;92821.88;5071621;28;20182;-81
2023/10/22 06:53:46;;;;;;;15.17;10.77;;;;;;;17.97;82.67;92824.09;5071516;28;20245;-81
2023/10/22 06:56:12;;;;;;;14.00;11.30;;;;;;;18.08;83.68;92835.84;5070081;28;20189;-80
2023/10/22 06:58:38;;;;;;;22.43;11.80;;;;;;;18.28;81.95;92841.19;5071296;28;21076;-82
2023/10/22 07:01:09;;;;;;;16.20;12.00;;;;;;;18.33;81.95;92824.38;5071734;28;20218;-81
2023/10/22 07:03:35;;;;;;;17.50;11.07;;;;;;;18.30;84.41;92832.94;5069136;28;20224;-80
2023/10/22 07:06:00;;;;;;;14.63;11.03;;;;;;;18.61;81.32;92830.75;5075110;28;20237;-80
2023/10/22 07:08:27;;;;;;;16.50;12.40;;;;;;;18.92;79.77;92823.97;5070752;28;20238;-81
2023/10/22 07:10:53;;;;;;;18.17;11.40;;;;;;;18.95;80.98;92827.84;5065894;28;20201;-82
2023/10/22 07:13:20;;;;;;;14.87;11.63;;;;;;;18.65;79.36;92829.00;5068275;28;20214;-81
2023/10/22 07:15:46;;;;;;;15.80;11.00;;;;;;;18.77;79.80;92851.00;5066831;28;20171;-81
2023/10/22 07:18:12;;;;;;;21.80;13.23;;;;;;;18.63;78.70;92821.38;5079973;28;20219;-80
2023/10/22 07:20:37;;;;;;;16.57;12.63;;;;;;;18.88;79.82;92848.75;5068937;28;20211;-80
2023/10/22 07:23:04;;;;;;;14.13;12.63;;;;;;;19.19;75.89;92849.13;5068727;28;20234;-81
2023/10/22 07:25:29;;;;;;;20.80;14.77;;;;;;;19.49;70.43;92825.97;5087146;28;20197;-80
2023/10/22 07:27:54;;;;;;;16.60;11.67;;;;;;;19.22;72.69;92824.66;5077884;28;20194;-81
2023/10/22 07:30:20;;;;;;;17.70;13.33;;;;;;;19.28;72.65;92819.94;5062228;28;20207;-82
2023/10/22 07:32:45;;;;;;;14.43;13.03;;;;;;;19.45;70.91;92831.16;5069126;28;20199;-81
2023/10/22 07:35:14;;;;;;;19.00;13.80;;;;;;;19.35;72.16;92825.50;5065626;28;20175;-81
2023/10/22 07:37:42;;;;;;;16.63;13.10;;;;;;;19.58;71.24;92835.38;5072994;28;20826;-75
2023/10/22 07:40:08;;;;;;;21.70;14.20;;;;;;;19.48;72.42;92825.19;5064310;28;20198;-82
2023/10/22 07:42:34;;;;;;;17.87;12.33;;;;;;;18.97;71.84;92833.59;5063929;28;20252;-81
2023/10/22 07:45:00;;;;;;;15.33;11.93;;;;;;;19.00;70.01;92825.75;5046273;28;20883;-81
2023/10/22 07:47:25;;;;;;;21.23;12.60;;;;;;;19.30;71.79;92844.97;5043225;28;20214;-80
2023/10/22 07:49:51;;;;;;;17.37;12.27;;;;;;;19.64;69.03;92839.38;5049847;28;20223;-80
2023/10/22 07:52:17;;;;;;;19.87;13.80;;;;;;;19.62;67.53;92830.97;5050736;28;20177;-81
2023/10/22 07:54:47;;;;;;;21.60;13.50;;;;;;;19.30;67.99;92817.75;5046277;28;20228;-81
2023/10/22 07:57:12;;;;;;;20.07;12.50;;;;;;;19.75;68.01;92821.94;5041951;28;20300;-82
2023/10/22 07:59:38;;;;;;;19.73;12.90;;;;;;;19.98;65.24;92809.81;5041590;28;20221;-81
2023/10/22 08:02:03;;;;;;;16.97;11.67;;;;;;;20.43;62.04;92813.16;5050885;28;20181;-81
2023/10/22 08:04:29;;;;;;;20.93;13.03;;;;;;;20.10;64.58;92809.81;5050039;28;20213;-81
2023/10/22 08:06:54;;;;;;;14.03;11.87;;;;;;;20.41;63.41;92799.44;5050593;28;20209;-80
2023/10/22 08:09:19;;;;;;;20.47;12.93;;;;;;;20.44;63.95;92800.66;5049812;28;20226;-81
2023/10/22 08:11:45;;;;;;;20.70;12.13;;;;;;;19.92;65.23;92819.06;5047107;28;20192;-81
2023/10/22 08:14:10;;;;;;;21.00;13.13;;;;;;;20.49;64.58;92822.44;5040092;28;20229;-81
2023/10/22 08:16:36;;;;;;;18.03;11.70;;;;;;;20.85;60.79;92799.56;5045554;28;20188;-81
2023/10/22 08:19:01;;;;;;;17.17;11.47;;;;;;;20.83;60.91;92785.84;5047161;28;20237;-80
2023/10/22 08:21:26;;;;;;;20.58;13.43;;;;;;;20.95;62.34;92796.44;5049037;28;20205;-81
2023/10/22 08:23:52;;;;;;;23.50;13.00;;;;;;;20.90;63.12;92799.34;5048801;28;20224;-81
2023/10/22 08:26:17;;;;;;;18.63;10.75;;;;;;;20.99;55.08;92790.16;5049942;28;20206;-78
2023/10/22 08:28:43;;;;;;;10.90;9.20;;;;;;;21.49;53.28;92794.91;5048878;28;20228;-81
2023/10/22 08:31:08;;;;;;;21.73;10.93;;;;;;;21.70;56.17;92793.56;5049271;28;20215;-81
2023/10/22 08:33:33;;;;;;;24.42;12.63;;;;;;;21.84;58.43;92795.81;5049233;28;20340;-81
2023/10/22 08:36:03;;;;;;;16.38;12.70;;;;;;;21.39;59.22;92795.38;5047637;28;20214;-81
2023/10/22 08:38:28;;;;;;;15.50;12.00;;;;;;;21.95;56.91;92802.94;5049686;28;20293;-77
2023/10/22 08:40:54;;;;;;;17.55;11.80;;;;;;;22.42;55.29;92797.59;5050219;28;20216;-78
2023/10/22 08:43:20;;;;;;;13.95;11.60;;;;;;;22.27;54.22;92801.81;5050515;28;20238;-78
2023/10/22 08:45:49;;;;;;;12.52;9.77;;;;;;;22.15;48.69;92785.16;5052630;28;20291;-80
2023/10/22 08:48:18;;;;;;;10.30;9.10;;;;;;;22.42;50.36;92786.94;5045968;28;20223;-81
2023/10/22 08:50:46;;;;;;;17.58;9.60;;;;;;;22.92;47.20;92797.56;5048417;28;20177;-72
2023/10/22 08:53:13;;;;;;;9.90;8.35;;;;;;;22.86;46.90;92796.31;5042558;28;20222;-76
2023/10/22 08:55:44;;;;;;;14.68;8.88;;;;;;;22.89;46.16;92792.16;5053685;28;20194;-81
2023/10/22 08:58:09;;;;;;;18.38;9.35;;;;;;;22.82;46.41;92789.38;5053302;28;20222;-79
2023/10/22 09:00:36;;;;;;;12.48;8.95;;;;;;;22.75;47.94;92782.00;5040511;28;20242;-81
2023/10/22 09:03:01;;;;;;;10.40;9.10;;;;;;;22.98;47.50;92772.19;5045500;28;20287;-83
2023/10/22 09:05:27;;;;;;;17.10;9.82;;;;;;;22.59;46.39;92783.91;5049216;28;20227;-83
2023/10/22 09:07:54;;;;;;;12.60;9.52;;;;;;;22.27;47.02;92776.31;5039566;28;20191;-83
2023/10/22 09:10:24;;;;;;;16.58;9.30;;;;;;;22.24;46.99;92767.16;5047021;28;20192;-81
2023/10/22 09:12:49;;;;;;;17.58;9.35;;;;;;;22.14;47.45;92773.78;5042714;28;20264;-80
2023/10/22 09:15:14;;;;;;;12.50;9.18;;;;;;;22.15;47.61;92747.94;5039280;28;20175;-80
2023/10/22 09:17:42;;;;;;;10.30;9.50;;;;;;;22.18;48.49;92755.22;5037446;28;20212;-76
2023/10/22 09:20:21;;;;;;;15.30;8.85;;;;;;;22.32;47.72;92744.91;5042556;28;20248;-80
2023/10/22 09:22:47;;;;;;;24.92;9.80;;;;;;;22.30;48.25;92749.81;5045878;28;20187;-82
2023/10/22 09:25:14;;;;;;;15.32;9.57;;;;;;;22.30;47.50;92715.22;5041466;28;20262;-82
2023/10/22 09:27:40;;;;;;;11.80;9.65;;;;;;;22.64;48.16;92740.28;5045366;28;20185;-77
2023/10/22 09:30:06;;;;;;;14.00;9.00;;;;;;;22.64;46.26;92743.72;5041264;28;20219;-80
2023/10/22 09:32:32;;;;;;;15.32;9.32;;;;;;;22.79;46.34;92724.25;5044039;28;20184;-83
2023/10/22 09:35:18;;;;;;;13.75;9.13;;;;;;;22.75;45.03;92739.41;5047896;28;21085;-81
2023/10/22 09:37:50;;;;;;;15.00;9.70;;;;;;;23.12;45.55;92729.84;5040012;28;20279;-81
2023/10/22 09:40:22;;;;;;;21.20;10.20;;;;;;;22.98;45.71;92734.13;5042964;28;20196;-83
2023/10/22 09:42:51;;;;;;;13.85;9.57;;;;;;;22.91;45.26;92742.75;5042421;28;20218;-78
2023/10/22 09:45:22;;;;;;;17.90;9.30;;;;;;;23.00;44.74;92726.56;5050188;28;20227;-75
2023/10/22 09:47:50;;;;;;;23.90;10.43;;;;;;;23.20;44.18;92728.88;5044639;28;20531;-74
2023/10/22 09:50:19;;;;;;;18.40;10.55;;;;;;;23.29;43.71;92716.13;5047514;28;20185;-74
2023/10/22 09:52:44;;;;;;;23.60;10.43;;;;;;;23.33;44.89;92724.19;5051715;28;20180;-75
2023/10/22 09:55:13;;;;;;;18.27;9.25;;;;;;;23.06;44.20;92717.94;5049554;28;20258;-74
2023/10/22 09:57:40;;;;;;;24.88;10.30;;;;;;;23.31;44.79;92713.09;5045676;28;20236;-75
2023/10/22 10:00:10;;;;;;;14.75;9.95;;;;;;;23.61;42.96;92720.09;5050625;28;20215;-74
2023/10/22 10:02:37;;;;;;;13.20;10.02;;;;;;;23.28;43.98;92698.59;5045223;28;20193;-84
2023/10/22 10:05:03;;;;;;;15.23;9.48;;;;;;;23.52;43.27;92692.13;5040210;28;20296;-85
2023/10/22 10:07:30;;;;;;;16.33;9.05;;;;;;;23.36;42.27;92689.56;5052129;28;20194;-80
2023/10/22 10:09:56;;;;;;;18.52;10.50;;;;;;;23.21;42.69;92689.66;5044711;28;20310;-82
2023/10/22 10:12:24;;;;;;;17.88;9.98;;;;;;;23.58;42.18;92696.81;5038873;28;20187;-84
2023/10/22 10:14:50;;;;;;;16.27;9.50;;;;;;;23.41;41.88;92683.97;5046323;28;20241;-87
2023/10/22 10:17:19;;;;;;;15.07;9.35;;;;;;;23.47;43.66;92684.44;5050768;28;20220;-86
2023/10/22 10:19:47;;;;;;;27.90;10.82;;;;;;;23.71;42.41;92700.84;5051066;28;20247;-80
2023/10/22 10:22:39;;;;;;;25.98;9.25;;;;;;;23.80;40.94;92687.25;5050670;28;20195;-81
2023/10/22 10:25:30;;;;;;;20.73;9.32;;;;;;;23.70;41.68;92695.88;5062744;28;20258;-87
2023/10/22 10:27:55;;;;;;;22.17;9.77;;;;;;;23.85;41.48;92696.84;5066616;28;20191;-82
2023/10/22 10:30:21;;;;;;;18.95;10.68;;;;;;;23.98;42.52;92692.88;5072507;28;20204;-83
2023/10/22 10:32:50;;;;;;;21.00;10.35;;;;;;;24.17;40.69;92682.91;5071749;28;20203;-81
2023/10/22 10:35:15;;;;;;;15.70;9.10;;;;;;;23.75;41.45;92659.00;5073385;28;20171;-88
2023/10/22 10:38:15;;;;;;;19.48;11.30;;;;;;;23.59;42.47;92674.38;5068959;28;20214;-74
2023/10/22 10:40:44;;;;;;;22.48;10.82;;;;;;;23.75;41.64;92664.31;5049937;28;20196;-76
2023/10/22 10:43:10;;;;;;;24.20;10.93;;;;;;;23.96;41.71;92655.09;5042180;28;20227;-79
2023/10/22 10:45:41;;;;;;;20.08;9.95;;;;;;;24.21;40.82;92664.25;5051201;28;20212;-79
2023/10/22 10:48:06;;;;;;;23.35;10.07;;;;;;;24.30;40.21;92651.41;5042592;28;20239;-79
2023/10/22 10:50:32;;;;;;;16.88;10.30;;;;;;;24.03;40.93;92650.69;5049027;28;20876;-78
2023/10/22 10:52:59;;;;;;;20.83;11.27;;;;;;;23.90;41.26;92661.88;5045366;28;20246;-79
2023/10/22 10:55:34;;;;;;;26.05;10.70;;;;;;;24.12;41.45;92663.75;5038318;28;21040;-80
2023/10/22 10:58:01;;;;;;;19.83;10.02;;;;;;;23.94;42.10;92668.03;5049821;28;20255;-79
2023/10/22 11:00:30;;;;;;;18.63;10.50;;;;;;;23.87;42.01;92681.25;5050320;28;20183;-77
2023/10/22 11:03:00;;;;;;;24.20;10.00;;;;;;;24.08;42.03;92670.94;5049912;28;20192;-78
2023/10/22 11:05:32;;;;;;;20.85;10.45;;;;;;;24.10;41.24;92652.66;5048493;28;20202;-78
2023/10/22 11:07:58;;;;;;;22.38;10.05;;;;;;;24.06;41.88;92675.88;5046739;28;20209;-78
2023/10/22 11:10:23;;;;;;;21.10;10.40;;;;;;;24.18;42.42;92686.31;5050790;28;20181;-79
2023/10/22 11:12:49;;;;;;;20.08;10.32;;;;;;;24.05;42.29;92650.31;5048430;28;20200;-77
2023/10/22 11:15:16;;;;;;;23.27;10.68;;;;;;;23.88;42.14;92656.16;5036149;28;20177;-71
2023/10/22 11:17:41;;;;;;;24.50;10.60;;;;;;;23.90;41.74;92685.88;5047758;28;20312;-71
2023/10/22 11:20:08;;;;;;;21.85;10.07;;;;;;;23.93;41.74;92675.25;5049770;28;20190;-72